Galva, Kansas
Current Conditions -  °F | °C
As of 6:55 PM on Saturday 22 Nov 2014 (Local Time) from KEWK Reporting Station
Overcast Overcast  
Wind Chill: 55°   Ceiling: 800
Heat Index: 55°   Visibility: 10mi
Dew Point: 50°   Wind: 23mph
Humidity: 82%   Direction: 190°S
Pressure: 29.73"   Gusts: NA
Location:  38.38°N, 97.54°W
Report Text: KEWK 230055Z AUTO 19020KT 10SM OVC008 13/10 A2973 RMK AO1
Loading
Personal Weather Stations






























Interactive Weather Map New forecast layout! Learn more

10-Day Weather Forecast

Advertisements
Track Severe Weather on mobile